sensor_id;sensor_type;location;lat;lon;timestamp;temperature;humidity
5200;DHT22;2619;47.868;11.892;2024-03-02T00:00:01;5.00;99.90
5200;DHT22;2619;47.868;11.892;2024-03-02T00:02:39;5.00;99.90
5200;DHT22;2619;47.868;11.892;2024-03-02T00:05:06;5.00;99.90
5200;DHT22;2619;47.868;11.892;2024-03-02T00:07:31;4.90;99.90
5200;DHT22;2619;47.868;11.892;2024-03-02T00:09:57;4.90;99.90
5200;DHT22;2619;47.868;11.892;2024-03-02T00:12:23;4.90;99.90
5200;DHT22;2619;47.868;11.892;2024-03-02T00:14:48;4.90;99.90
5200;DHT22;2619;47.868;11.892;2024-03-02T00:17:24;4.90;99.90
5200;DHT22;2619;47.868;11.892;2024-03-02T00:19:50;4.80;99.90
5200;DHT22;2619;47.868;11.892;2024-03-02T00:22:16;4.80;99.90
5200;DHT22;2619;47.868;11.892;2024-03-02T00:24:41;4.70;99.90
5200;DHT22;2619;47.868;11.892;2024-03-02T00:27:07;4.60;99.90
5200;DHT22;2619;47.868;11.892;2024-03-02T00:29:36;4.60;99.90
5200;DHT22;2619;47.868;11.892;2024-03-02T00:32:02;4.60;99.90
5200;DHT22;2619;47.868;11.892;2024-03-02T00:34:29;4.70;99.90
5200;DHT22;2619;47.868;11.892;2024-03-02T00:36:57;4.70;99.90
5200;DHT22;2619;47.868;11.892;2024-03-02T00:39:25;4.80;99.90
5200;DHT22;2619;47.868;11.892;2024-03-02T00:41:50;4.80;99.90
5200;DHT22;2619;47.868;11.892;2024-03-02T00:44:18;4.80;99.90
5200;DHT22;2619;47.868;11.892;2024-03-02T00:46:45;4.80;99.90
5200;DHT22;2619;47.868;11.892;2024-03-02T00:51:36;4.80;99.90
5200;DHT22;2619;47.868;11.892;2024-03-02T00:54:04;4.90;99.90
5200;DHT22;2619;47.868;11.892;2024-03-02T00:56:30;4.80;99.90
5200;DHT22;2619;47.868;11.892;2024-03-02T00:58:56;4.80;99.90
5200;DHT22;2619;47.868;11.892;2024-03-02T01:01:22;4.80;99.90
5200;DHT22;2619;47.868;11.892;2024-03-02T01:03:48;4.80;99.90
5200;DHT22;2619;47.868;11.892;2024-03-02T01:06:15;4.70;99.90
5200;DHT22;2619;47.868;11.892;2024-03-02T01:08:41;4.70;99.90
5200;DHT22;2619;47.868;11.892;2024-03-02T01:11:07;4.70;99.90
5200;DHT22;2619;47.868;11.892;2024-03-02T01:13:33;4.70;99.90
5200;DHT22;2619;47.868;11.892;2024-03-02T01:15:58;4.70;99.90
5200;DHT22;2619;47.868;11.892;2024-03-02T01:18:24;4.60;99.90
5200;DHT22;2619;47.868;11.892;2024-03-02T01:20:50;4.60;99.90
5200;DHT22;2619;47.868;11.892;2024-03-02T01:23:21;4.60;99.90
5200;DHT22;2619;47.868;11.892;2024-03-02T01:25:47;4.60;99.90
5200;DHT22;2619;47.868;11.892;2024-03-02T01:28:13;4.60;99.90
5200;DHT22;2619;47.868;11.892;2024-03-02T01:30:39;4.70;99.90
5200;DHT22;2619;47.868;11.892;2024-03-02T01:33:05;4.70;99.90
5200;DHT22;2619;47.868;11.892;2024-03-02T01:35:31;4.70;99.90
5200;DHT22;2619;47.868;11.892;2024-03-02T01:37:57;4.80;99.90
5200;DHT22;2619;47.868;11.892;2024-03-02T01:40:23;4.80;99.90
5200;DHT22;2619;47.868;11.892;2024-03-02T01:42:52;4.80;99.90
5200;DHT22;2619;47.868;11.892;2024-03-02T01:45:19;4.80;99.90
5200;DHT22;2619;47.868;11.892;2024-03-02T01:47:44;4.80;99.90
5200;DHT22;2619;47.868;11.892;2024-03-02T01:50:11;4.80;99.90
5200;DHT22;2619;47.868;11.892;2024-03-02T01:52:37;4.90;99.90
5200;DHT22;2619;47.868;11.892;2024-03-02T01:55:03;4.90;99.90
5200;DHT22;2619;47.868;11.892;2024-03-02T01:57:29;4.80;99.90
5200;DHT22;2619;47.868;11.892;2024-03-02T01:59:55;4.80;99.90
5200;DHT22;2619;47.868;11.892;2024-03-02T02:02:21;4.80;99.90
5200;DHT22;2619;47.868;11.892;2024-03-02T02:04:46;4.90;99.90
5200;DHT22;2619;47.868;11.892;2024-03-02T02:07:12;4.90;99.90
5200;DHT22;2619;47.868;11.892;2024-03-02T02:09:41;4.90;99.90
5200;DHT22;2619;47.868;11.892;2024-03-02T02:12:06;5.00;99.90
5200;DHT22;2619;47.868;11.892;2024-03-02T02:14:33;5.00;99.90
5200;DHT22;2619;47.868;11.892;2024-03-02T02:16:59;5.00;99.90
5200;DHT22;2619;47.868;11.892;2024-03-02T02:19:25;5.00;99.90
5200;DHT22;2619;47.868;11.892;2024-03-02T02:21:50;5.00;99.90
5200;DHT22;2619;47.868;11.892;2024-03-02T02:24:16;4.80;99.90
5200;DHT22;2619;47.868;11.892;2024-03-02T02:26:41;4.90;99.90
5200;DHT22;2619;47.868;11.892;2024-03-02T02:29:07;4.90;99.90
5200;DHT22;2619;47.868;11.892;2024-03-02T02:31:39;4.90;99.90
5200;DHT22;2619;47.868;11.892;2024-03-02T02:34:05;4.90;99.90
5200;DHT22;2619;47.868;11.892;2024-03-02T02:36:32;4.90;99.90
5200;DHT22;2619;47.868;11.892;2024-03-02T02:39:03;5.00;99.90
5200;DHT22;2619;47.868;11.892;2024-03-02T02:41:29;5.10;99.90
5200;DHT22;2619;47.868;11.892;2024-03-02T02:43:55;5.10;99.90
5200;DHT22;2619;47.868;11.892;2024-03-02T02:46:21;5.20;99.90
5200;DHT22;2619;47.868;11.892;2024-03-02T02:48:46;5.30;99.90
5200;DHT22;2619;47.868;11.892;2024-03-02T02:51:12;5.30;99.90
5200;DHT22;2619;47.868;11.892;2024-03-02T02:53:38;5.30;99.90
5200;DHT22;2619;47.868;11.892;2024-03-02T02:56:06;5.30;99.90
5200;DHT22;2619;47.868;11.892;2024-03-02T02:58:32;5.30;99.90
5200;DHT22;2619;47.868;11.892;2024-03-02T03:00:57;5.30;99.90
5200;DHT22;2619;47.868;11.892;2024-03-02T03:03:23;5.40;99.90
5200;DHT22;2619;47.868;11.892;2024-03-02T03:05:49;5.40;99.90
5200;DHT22;2619;47.868;11.892;2024-03-02T03:08:14;5.40;99.90
5200;DHT22;2619;47.868;11.892;2024-03-02T03:10:41;5.40;99.90
5200;DHT22;2619;47.868;11.892;2024-03-02T03:13:07;5.40;99.90
5200;DHT22;2619;47.868;11.892;2024-03-02T03:15:35;5.40;99.90
5200;DHT22;2619;47.868;11.892;2024-03-02T03:18:04;5.40;99.90
5200;DHT22;2619;47.868;11.892;2024-03-02T03:20:30;5.30;99.90
5200;DHT22;2619;47.868;11.892;2024-03-02T03:22:59;5.30;99.90
5200;DHT22;2619;47.868;11.892;2024-03-02T03:25:25;5.30;99.90
5200;DHT22;2619;47.868;11.892;2024-03-02T03:27:50;5.30;99.90
5200;DHT22;2619;47.868;11.892;2024-03-02T03:30:18;5.30;99.90
5200;DHT22;2619;47.868;11.892;2024-03-02T03:32:43;5.20;99.90
5200;DHT22;2619;47.868;11.892;2024-03-02T03:35:09;5.20;99.90
5200;DHT22;2619;47.868;11.892;2024-03-02T03:37:35;5.10;99.90
5200;DHT22;2619;47.868;11.892;2024-03-02T03:40:01;5.10;99.90
5200;DHT22;2619;47.868;11.892;2024-03-02T03:42:28;5.10;99.90
5200;DHT22;2619;47.868;11.892;2024-03-02T03:44:53;5.00;99.90
5200;DHT22;2619;47.868;11.892;2024-03-02T03:47:19;5.00;99.90
5200;DHT22;2619;47.868;11.892;2024-03-02T03:49:45;4.90;99.90
5200;DHT22;2619;47.868;11.892;2024-03-02T03:52:11;4.90;99.90
5200;DHT22;2619;47.868;11.892;2024-03-02T03:54:36;4.80;99.90
5200;DHT22;2619;47.868;11.892;2024-03-02T03:57:03;4.80;99.90
5200;DHT22;2619;47.868;11.892;2024-03-02T03:59:29;4.80;99.90
5200;DHT22;2619;47.868;11.892;2024-03-02T04:01:55;4.80;99.90
5200;DHT22;2619;47.868;11.892;2024-03-02T04:04:21;4.80;99.90
5200;DHT22;2619;47.868;11.892;2024-03-02T04:06:46;4.80;99.90
5200;DHT22;2619;47.868;11.892;2024-03-02T04:09:12;4.80;99.90
5200;DHT22;2619;47.868;11.892;2024-03-02T04:11:38;4.80;99.90
5200;DHT22;2619;47.868;11.892;2024-03-02T04:14:03;4.90;99.90
5200;DHT22;2619;47.868;11.892;2024-03-02T04:16:31;4.80;99.90
5200;DHT22;2619;47.868;11.892;2024-03-02T04:18:57;4.70;99.90
5200;DHT22;2619;47.868;11.892;2024-03-02T04:21:22;4.70;99.90
5200;DHT22;2619;47.868;11.892;2024-03-02T04:23:48;4.80;99.90
5200;DHT22;2619;47.868;11.892;2024-03-02T04:26:13;4.70;99.90
5200;DHT22;2619;47.868;11.892;2024-03-02T04:28:40;4.80;99.90
5200;DHT22;2619;47.868;11.892;2024-03-02T04:31:05;4.70;99.90
5200;DHT22;2619;47.868;11.892;2024-03-02T04:33:31;4.70;99.90
5200;DHT22;2619;47.868;11.892;2024-03-02T04:35:57;4.70;99.90
5200;DHT22;2619;47.868;11.892;2024-03-02T04:38:23;4.70;99.90
5200;DHT22;2619;47.868;11.892;2024-03-02T04:40:48;4.70;99.90
5200;DHT22;2619;47.868;11.892;2024-03-02T04:43:14;4.80;99.90
5200;DHT22;2619;47.868;11.892;2024-03-02T04:45:42;4.70;99.90
5200;DHT22;2619;47.868;11.892;2024-03-02T04:48:08;4.70;99.90
5200;DHT22;2619;47.868;11.892;2024-03-02T04:50:33;4.70;99.90
5200;DHT22;2619;47.868;11.892;2024-03-02T04:52:59;4.70;99.90
5200;DHT22;2619;47.868;11.892;2024-03-02T04:55:24;4.70;99.90
5200;DHT22;2619;47.868;11.892;2024-03-02T04:58:00;4.80;99.90
5200;DHT22;2619;47.868;11.892;2024-03-02T05:00:26;4.80;99.90
5200;DHT22;2619;47.868;11.892;2024-03-02T05:02:51;4.80;99.90
5200;DHT22;2619;47.868;11.892;2024-03-02T05:05:17;4.80;99.90
5200;DHT22;2619;47.868;11.892;2024-03-02T05:07:42;4.80;99.90
5200;DHT22;2619;47.868;11.892;2024-03-02T05:10:09;4.90;99.90
5200;DHT22;2619;47.868;11.892;2024-03-02T05:12:35;4.90;99.90
5200;DHT22;2619;47.868;11.892;2024-03-02T05:15:07;4.90;99.90
5200;DHT22;2619;47.868;11.892;2024-03-02T05:17:36;4.90;99.90
5200;DHT22;2619;47.868;11.892;2024-03-02T05:20:02;4.90;99.90
5200;DHT22;2619;47.868;11.892;2024-03-02T05:22:29;4.80;99.90
5200;DHT22;2619;47.868;11.892;2024-03-02T05:24:54;4.80;99.90
5200;DHT22;2619;47.868;11.892;2024-03-02T05:27:20;4.80;99.90
5200;DHT22;2619;47.868;11.892;2024-03-02T05:29:46;4.80;99.90
5200;DHT22;2619;47.868;11.892;2024-03-02T05:32:12;4.70;99.90
5200;DHT22;2619;47.868;11.892;2024-03-02T05:34:38;4.80;99.90
5200;DHT22;2619;47.868;11.892;2024-03-02T05:37:03;4.80;99.90
5200;DHT22;2619;47.868;11.892;2024-03-02T05:39:29;4.80;99.90
5200;DHT22;2619;47.868;11.892;2024-03-02T05:41:54;4.80;99.90
5200;DHT22;2619;47.868;11.892;2024-03-02T05:44:20;4.90;99.90
5200;DHT22;2619;47.868;11.892;2024-03-02T05:46:46;4.80;99.90
5200;DHT22;2619;47.868;11.892;2024-03-02T05:49:11;4.90;99.90
5200;DHT22;2619;47.868;11.892;2024-03-02T05:51:37;5.00;99.90
5200;DHT22;2619;47.868;11.892;2024-03-02T05:54:03;5.00;99.90
5200;DHT22;2619;47.868;11.892;2024-03-02T05:56:28;5.00;99.90
5200;DHT22;2619;47.868;11.892;2024-03-02T05:58:54;5.00;99.90
5200;DHT22;2619;47.868;11.892;2024-03-02T06:01:45;5.00;99.90
5200;DHT22;2619;47.868;11.892;2024-03-02T06:04:12;5.00;99.90
5200;DHT22;2619;47.868;11.892;2024-03-02T06:06:41;5.00;99.90
5200;DHT22;2619;47.868;11.892;2024-03-02T06:09:07;5.00;99.90
5200;DHT22;2619;47.868;11.892;2024-03-02T06:11:40;5.00;99.90
5200;DHT22;2619;47.868;11.892;2024-03-02T06:14:07;5.10;99.90
5200;DHT22;2619;47.868;11.892;2024-03-02T06:16:33;5.20;99.90
5200;DHT22;2619;47.868;11.892;2024-03-02T06:18:59;5.20;99.90
5200;DHT22;2619;47.868;11.892;2024-03-02T06:21:25;5.30;99.90
5200;DHT22;2619;47.868;11.892;2024-03-02T06:23:51;5.30;99.90
5200;DHT22;2619;47.868;11.892;2024-03-02T06:26:18;5.30;99.90
5200;DHT22;2619;47.868;11.892;2024-03-02T06:28:44;5.40;99.90
5200;DHT22;2619;47.868;11.892;2024-03-02T06:31:10;5.50;99.90
5200;DHT22;2619;47.868;11.892;2024-03-02T06:33:35;5.50;99.90
5200;DHT22;2619;47.868;11.892;2024-03-02T06:36:01;5.60;99.90
5200;DHT22;2619;47.868;11.892;2024-03-02T06:38:27;5.60;99.90
5200;DHT22;2619;47.868;11.892;2024-03-02T06:40:53;5.60;99.90
5200;DHT22;2619;47.868;11.892;2024-03-02T06:43:19;5.60;99.90
5200;DHT22;2619;47.868;11.892;2024-03-02T06:45:49;5.70;99.90
5200;DHT22;2619;47.868;11.892;2024-03-02T06:48:14;5.70;99.90
5200;DHT22;2619;47.868;11.892;2024-03-02T06:50:44;5.70;99.90
5200;DHT22;2619;47.868;11.892;2024-03-02T06:53:09;5.80;99.90
5200;DHT22;2619;47.868;11.892;2024-03-02T06:55:35;5.80;99.90
5200;DHT22;2619;47.868;11.892;2024-03-02T06:58:00;5.80;99.90
5200;DHT22;2619;47.868;11.892;2024-03-02T07:00:26;5.90;99.90
5200;DHT22;2619;47.868;11.892;2024-03-02T07:02:51;6.00;99.90
5200;DHT22;2619;47.868;11.892;2024-03-02T07:05:17;6.10;99.90
5200;DHT22;2619;47.868;11.892;2024-03-02T07:07:43;6.10;99.90
5200;DHT22;2619;47.868;11.892;2024-03-02T07:10:08;6.10;99.90
5200;DHT22;2619;47.868;11.892;2024-03-02T07:12:34;6.20;99.90
5200;DHT22;2619;47.868;11.892;2024-03-02T07:15:00;6.20;99.90
5200;DHT22;2619;47.868;11.892;2024-03-02T07:17:28;6.20;99.90
5200;DHT22;2619;47.868;11.892;2024-03-02T07:19:54;6.20;99.90
5200;DHT22;2619;47.868;11.892;2024-03-02T07:22:19;6.20;99.90
5200;DHT22;2619;47.868;11.892;2024-03-02T07:24:45;6.20;99.90
5200;DHT22;2619;47.868;11.892;2024-03-02T07:27:15;6.20;99.90
5200;DHT22;2619;47.868;11.892;2024-03-02T07:29:40;6.20;99.90
5200;DHT22;2619;47.868;11.892;2024-03-02T07:32:07;6.20;99.90
5200;DHT22;2619;47.868;11.892;2024-03-02T07:34:33;6.20;99.90
5200;DHT22;2619;47.868;11.892;2024-03-02T07:36:58;6.20;99.90
5200;DHT22;2619;47.868;11.892;2024-03-02T07:39:25;6.30;99.90
5200;DHT22;2619;47.868;11.892;2024-03-02T07:41:50;6.30;99.90
5200;DHT22;2619;47.868;11.892;2024-03-02T07:44:16;6.30;99.90
5200;DHT22;2619;47.868;11.892;2024-03-02T07:46:44;6.20;99.90
5200;DHT22;2619;47.868;11.892;2024-03-02T07:49:12;6.30;99.90
5200;DHT22;2619;47.868;11.892;2024-03-02T07:51:39;6.30;99.90
5200;DHT22;2619;47.868;11.892;2024-03-02T07:54:04;6.30;99.90
5200;DHT22;2619;47.868;11.892;2024-03-02T07:56:30;6.30;99.90
5200;DHT22;2619;47.868;11.892;2024-03-02T07:58:56;6.40;99.90
5200;DHT22;2619;47.868;11.892;2024-03-02T08:01:29;6.40;99.90
5200;DHT22;2619;47.868;11.892;2024-03-02T08:03:59;6.50;99.90
5200;DHT22;2619;47.868;11.892;2024-03-02T08:06:28;6.60;99.90
5200;DHT22;2619;47.868;11.892;2024-03-02T08:08:54;6.60;99.90
5200;DHT22;2619;47.868;11.892;2024-03-02T08:11:21;6.80;99.90
5200;DHT22;2619;47.868;11.892;2024-03-02T08:13:46;6.90;99.90
5200;DHT22;2619;47.868;11.892;2024-03-02T08:16:12;7.00;99.90
5200;DHT22;2619;47.868;11.892;2024-03-02T08:18:38;7.10;99.90
5200;DHT22;2619;47.868;11.892;2024-03-02T08:21:04;7.20;99.90
5200;DHT22;2619;47.868;11.892;2024-03-02T08:23:30;7.40;99.90
5200;DHT22;2619;47.868;11.892;2024-03-02T08:25:56;7.50;99.90
5200;DHT22;2619;47.868;11.892;2024-03-02T08:28:22;7.80;99.90
5200;DHT22;2619;47.868;11.892;2024-03-02T08:30:47;8.00;99.90
5200;DHT22;2619;47.868;11.892;2024-03-02T08:33:13;8.30;99.90
5200;DHT22;2619;47.868;11.892;2024-03-02T08:35:38;8.60;99.90
5200;DHT22;2619;47.868;11.892;2024-03-02T08:38:04;8.80;99.90
5200;DHT22;2619;47.868;11.892;2024-03-02T08:40:30;9.00;99.90
5200;DHT22;2619;47.868;11.892;2024-03-02T08:42:56;9.20;99.90
5200;DHT22;2619;47.868;11.892;2024-03-02T08:45:22;9.40;99.90
5200;DHT22;2619;47.868;11.892;2024-03-02T08:47:47;9.40;99.90
5200;DHT22;2619;47.868;11.892;2024-03-02T08:50:13;9.40;99.90
5200;DHT22;2619;47.868;11.892;2024-03-02T08:52:39;9.60;99.90
5200;DHT22;2619;47.868;11.892;2024-03-02T08:55:06;9.60;99.90
5200;DHT22;2619;47.868;11.892;2024-03-02T08:57:32;9.60;99.90
5200;DHT22;2619;47.868;11.892;2024-03-02T08:59:58;9.60;99.90
5200;DHT22;2619;47.868;11.892;2024-03-02T09:02:24;9.70;99.90
5200;DHT22;2619;47.868;11.892;2024-03-02T09:04:50;9.90;99.90
5200;DHT22;2619;47.868;11.892;2024-03-02T09:07:16;9.90;99.90
5200;DHT22;2619;47.868;11.892;2024-03-02T09:09:41;10.00;99.90
5200;DHT22;2619;47.868;11.892;2024-03-02T09:12:07;10.00;99.90
5200;DHT22;2619;47.868;11.892;2024-03-02T09:14:33;10.20;99.90
5200;DHT22;2619;47.868;11.892;2024-03-02T09:16:59;10.40;99.90
5200;DHT22;2619;47.868;11.892;2024-03-02T09:19:25;10.50;99.90
5200;DHT22;2619;47.868;11.892;2024-03-02T09:21:50;10.60;99.90
5200;DHT22;2619;47.868;11.892;2024-03-02T09:24:16;10.60;99.90
5200;DHT22;2619;47.868;11.892;2024-03-02T09:26:42;10.60;99.90
5200;DHT22;2619;47.868;11.892;2024-03-02T09:29:07;10.70;99.90
5200;DHT22;2619;47.868;11.892;2024-03-02T09:31:33;10.80;99.90
5200;DHT22;2619;47.868;11.892;2024-03-02T09:33:58;10.90;99.90
5200;DHT22;2619;47.868;11.892;2024-03-02T09:36:24;11.10;99.90
5200;DHT22;2619;47.868;11.892;2024-03-02T09:38:49;11.10;99.90
5200;DHT22;2619;47.868;11.892;2024-03-02T09:41:15;10.90;99.90
5200;DHT22;2619;47.868;11.892;2024-03-02T09:43:41;10.80;99.90
5200;DHT22;2619;47.868;11.892;2024-03-02T09:46:09;10.60;99.90
5200;DHT22;2619;47.868;11.892;2024-03-02T09:48:35;10.50;99.90
5200;DHT22;2619;47.868;11.892;2024-03-02T09:51:01;10.30;99.90
5200;DHT22;2619;47.868;11.892;2024-03-02T09:53:31;10.10;99.90
5200;DHT22;2619;47.868;11.892;2024-03-02T09:55:57;10.00;99.90
5200;DHT22;2619;47.868;11.892;2024-03-02T09:58:23;9.80;99.90
5200;DHT22;2619;47.868;11.892;2024-03-02T10:00:49;9.80;99.90
5200;DHT22;2619;47.868;11.892;2024-03-02T10:03:15;9.70;99.90
5200;DHT22;2619;47.868;11.892;2024-03-02T10:05:40;9.80;99.90
5200;DHT22;2619;47.868;11.892;2024-03-02T10:08:06;9.90;99.90
5200;DHT22;2619;47.868;11.892;2024-03-02T10:10:39;10.10;99.90
5200;DHT22;2619;47.868;11.892;2024-03-02T10:13:09;10.20;99.90
5200;DHT22;2619;47.868;11.892;2024-03-02T10:15:36;10.00;99.90
5200;DHT22;2619;47.868;11.892;2024-03-02T10:18:11;10.10;99.90
5200;DHT22;2619;47.868;11.892;2024-03-02T10:20:38;9.90;99.90
5200;DHT22;2619;47.868;11.892;2024-03-02T10:23:15;9.80;99.90
5200;DHT22;2619;47.868;11.892;2024-03-02T10:25:42;9.70;99.90
5200;DHT22;2619;47.868;11.892;2024-03-02T10:28:08;9.70;99.90
5200;DHT22;2619;47.868;11.892;2024-03-02T10:30:34;9.70;99.90
5200;DHT22;2619;47.868;11.892;2024-03-02T10:33:05;9.80;99.90
5200;DHT22;2619;47.868;11.892;2024-03-02T10:35:31;9.80;99.90
5200;DHT22;2619;47.868;11.892;2024-03-02T10:37:59;9.70;99.90
5200;DHT22;2619;47.868;11.892;2024-03-02T10:40:29;9.80;99.90
5200;DHT22;2619;47.868;11.892;2024-03-02T10:42:55;9.70;99.90
5200;DHT22;2619;47.868;11.892;2024-03-02T10:45:21;9.70;99.90
5200;DHT22;2619;47.868;11.892;2024-03-02T10:47:48;9.80;99.90
5200;DHT22;2619;47.868;11.892;2024-03-02T10:50:13;9.90;99.90
5200;DHT22;2619;47.868;11.892;2024-03-02T10:52:39;9.90;99.90
5200;DHT22;2619;47.868;11.892;2024-03-02T10:55:06;9.90;99.90
5200;DHT22;2619;47.868;11.892;2024-03-02T10:57:50;10.00;99.90
5200;DHT22;2619;47.868;11.892;2024-03-02T11:00:16;10.00;99.90
5200;DHT22;2619;47.868;11.892;2024-03-02T11:02:51;10.00;99.90
5200;DHT22;2619;47.868;11.892;2024-03-02T11:05:27;9.90;99.90
5200;DHT22;2619;47.868;11.892;2024-03-02T11:08:17;10.10;99.90
5200;DHT22;2619;47.868;11.892;2024-03-02T11:10:53;10.20;99.90
5200;DHT22;2619;47.868;11.892;2024-03-02T11:13:42;10.20;99.90
5200;DHT22;2619;47.868;11.892;2024-03-02T11:16:39;10.30;99.90
5200;DHT22;2619;47.868;11.892;2024-03-02T11:19:08;10.50;99.90
5200;DHT22;2619;47.868;11.892;2024-03-02T11:21:35;10.60;99.90
5200;DHT22;2619;47.868;11.892;2024-03-02T11:26:47;10.70;99.90
5200;DHT22;2619;47.868;11.892;2024-03-02T11:32:23;11.10;99.90
5200;DHT22;2619;47.868;11.892;2024-03-02T11:34:50;11.20;99.90
5200;DHT22;2619;47.868;11.892;2024-03-02T11:37:17;11.40;99.90
5200;DHT22;2619;47.868;11.892;2024-03-02T11:39:44;11.40;99.90
5200;DHT22;2619;47.868;11.892;2024-03-02T11:42:11;11.60;99.90
5200;DHT22;2619;47.868;11.892;2024-03-02T11:44:39;11.70;99.90
5200;DHT22;2619;47.868;11.892;2024-03-02T11:47:07;11.90;99.90
5200;DHT22;2619;47.868;11.892;2024-03-02T11:52:07;12.10;99.90
5200;DHT22;2619;47.868;11.892;2024-03-02T11:54:33;12.20;99.90
5200;DHT22;2619;47.868;11.892;2024-03-02T11:57:03;12.30;99.90
5200;DHT22;2619;47.868;11.892;2024-03-02T11:59:32;12.30;99.90
5200;DHT22;2619;47.868;11.892;2024-03-02T12:01:58;12.40;99.90
5200;DHT22;2619;47.868;11.892;2024-03-02T12:04:24;12.30;99.90
5200;DHT22;2619;47.868;11.892;2024-03-02T12:06:57;12.30;99.90
5200;DHT22;2619;47.868;11.892;2024-03-02T12:09:25;12.30;99.90
5200;DHT22;2619;47.868;11.892;2024-03-02T12:12:08;12.30;99.90
5200;DHT22;2619;47.868;11.892;2024-03-02T12:14:36;12.30;99.90
5200;DHT22;2619;47.868;11.892;2024-03-02T12:17:02;12.30;99.90
5200;DHT22;2619;47.868;11.892;2024-03-02T12:19:29;12.40;99.90
5200;DHT22;2619;47.868;11.892;2024-03-02T12:21:56;12.50;99.90
5200;DHT22;2619;47.868;11.892;2024-03-02T12:24:22;12.50;99.90
5200;DHT22;2619;47.868;11.892;2024-03-02T12:26:49;12.50;99.90
5200;DHT22;2619;47.868;11.892;2024-03-02T12:29:15;12.50;99.90
5200;DHT22;2619;47.868;11.892;2024-03-02T12:31:42;12.70;99.90
5200;DHT22;2619;47.868;11.892;2024-03-02T12:34:15;12.60;99.90
5200;DHT22;2619;47.868;11.892;2024-03-02T12:36:41;12.40;99.90
5200;DHT22;2619;47.868;11.892;2024-03-02T12:39:10;12.40;99.90
5200;DHT22;2619;47.868;11.892;2024-03-02T12:41:36;12.30;99.90
5200;DHT22;2619;47.868;11.892;2024-03-02T12:44:03;12.30;99.90
5200;DHT22;2619;47.868;11.892;2024-03-02T12:46:28;12.50;99.90
5200;DHT22;2619;47.868;11.892;2024-03-02T12:48:54;12.60;99.90
5200;DHT22;2619;47.868;11.892;2024-03-02T12:51:20;12.50;99.90
5200;DHT22;2619;47.868;11.892;2024-03-02T12:53:45;12.60;99.90
5200;DHT22;2619;47.868;11.892;2024-03-02T12:56:18;12.70;99.90
5200;DHT22;2619;47.868;11.892;2024-03-02T12:58:44;12.60;99.90
5200;DHT22;2619;47.868;11.892;2024-03-02T13:01:09;12.60;99.90
5200;DHT22;2619;47.868;11.892;2024-03-02T13:03:38;12.40;99.90
5200;DHT22;2619;47.868;11.892;2024-03-02T13:06:05;12.40;99.90
5200;DHT22;2619;47.868;11.892;2024-03-02T13:08:31;12.60;99.90
5200;DHT22;2619;47.868;11.892;2024-03-02T13:10:57;12.50;99.90
5200;DHT22;2619;47.868;11.892;2024-03-02T13:13:22;12.50;99.90
5200;DHT22;2619;47.868;11.892;2024-03-02T13:15:48;12.60;99.90
5200;DHT22;2619;47.868;11.892;2024-03-02T13:18:14;12.70;99.90
5200;DHT22;2619;47.868;11.892;2024-03-02T13:20:39;13.00;99.90
5200;DHT22;2619;47.868;11.892;2024-03-02T13:23:05;13.00;99.90
5200;DHT22;2619;47.868;11.892;2024-03-02T13:25:31;13.10;99.90
5200;DHT22;2619;47.868;11.892;2024-03-02T13:27:57;12.90;99.90
5200;DHT22;2619;47.868;11.892;2024-03-02T13:30:23;12.90;99.90
5200;DHT22;2619;47.868;11.892;2024-03-02T13:32:49;13.10;99.90
5200;DHT22;2619;47.868;11.892;2024-03-02T13:35:14;13.10;99.90
5200;DHT22;2619;47.868;11.892;2024-03-02T13:37:40;12.80;99.90
5200;DHT22;2619;47.868;11.892;2024-03-02T13:40:06;12.60;99.90
5200;DHT22;2619;47.868;11.892;2024-03-02T13:42:32;12.70;99.90
5200;DHT22;2619;47.868;11.892;2024-03-02T13:44:57;12.50;99.90
5200;DHT22;2619;47.868;11.892;2024-03-02T13:47:23;12.50;99.90
5200;DHT22;2619;47.868;11.892;2024-03-02T13:49:48;12.60;99.90
5200;DHT22;2619;47.868;11.892;2024-03-02T13:52:15;12.80;99.90
5200;DHT22;2619;47.868;11.892;2024-03-02T13:54:43;12.80;99.90
5200;DHT22;2619;47.868;11.892;2024-03-02T13:57:10;12.90;99.90
5200;DHT22;2619;47.868;11.892;2024-03-02T13:59:36;12.90;99.90
5200;DHT22;2619;47.868;11.892;2024-03-02T14:02:03;13.00;99.90
5200;DHT22;2619;47.868;11.892;2024-03-02T14:04:33;12.90;99.90
5200;DHT22;2619;47.868;11.892;2024-03-02T14:06:59;13.00;99.90
5200;DHT22;2619;47.868;11.892;2024-03-02T14:09:25;13.00;99.90
5200;DHT22;2619;47.868;11.892;2024-03-02T14:11:52;13.10;99.90
5200;DHT22;2619;47.868;11.892;2024-03-02T14:14:18;12.90;99.90
5200;DHT22;2619;47.868;11.892;2024-03-02T14:16:44;13.00;99.90
5200;DHT22;2619;47.868;11.892;2024-03-02T14:19:11;12.90;99.90
5200;DHT22;2619;47.868;11.892;2024-03-02T14:21:37;13.00;99.90
5200;DHT22;2619;47.868;11.892;2024-03-02T14:24:03;13.10;99.90
5200;DHT22;2619;47.868;11.892;2024-03-02T14:26:29;13.00;99.90
5200;DHT22;2619;47.868;11.892;2024-03-02T14:28:55;13.20;99.90
5200;DHT22;2619;47.868;11.892;2024-03-02T14:31:21;13.10;99.90
5200;DHT22;2619;47.868;11.892;2024-03-02T14:33:46;13.10;99.90
5200;DHT22;2619;47.868;11.892;2024-03-02T14:36:12;13.10;99.90
5200;DHT22;2619;47.868;11.892;2024-03-02T14:38:38;13.10;99.90
5200;DHT22;2619;47.868;11.892;2024-03-02T14:41:04;13.20;99.90
5200;DHT22;2619;47.868;11.892;2024-03-02T14:43:30;13.20;99.90
5200;DHT22;2619;47.868;11.892;2024-03-02T14:45:56;13.30;99.90
5200;DHT22;2619;47.868;11.892;2024-03-02T14:48:22;13.30;99.90
5200;DHT22;2619;47.868;11.892;2024-03-02T14:50:48;13.30;99.90
5200;DHT22;2619;47.868;11.892;2024-03-02T14:53:13;13.20;99.90
5200;DHT22;2619;47.868;11.892;2024-03-02T14:55:39;13.20;99.90
5200;DHT22;2619;47.868;11.892;2024-03-02T14:58:04;13.10;99.90
5200;DHT22;2619;47.868;11.892;2024-03-02T15:00:30;13.10;99.90
5200;DHT22;2619;47.868;11.892;2024-03-02T15:02:55;13.00;99.90
5200;DHT22;2619;47.868;11.892;2024-03-02T15:05:21;12.90;99.90
5200;DHT22;2619;47.868;11.892;2024-03-02T15:07:47;12.70;99.90
5200;DHT22;2619;47.868;11.892;2024-03-02T15:10:12;12.70;99.90
5200;DHT22;2619;47.868;11.892;2024-03-02T15:12:38;12.70;99.90
5200;DHT22;2619;47.868;11.892;2024-03-02T15:15:04;12.70;99.90
5200;DHT22;2619;47.868;11.892;2024-03-02T15:17:30;12.70;99.90
5200;DHT22;2619;47.868;11.892;2024-03-02T15:19:55;12.70;99.90
5200;DHT22;2619;47.868;11.892;2024-03-02T15:22:21;12.60;99.90
5200;DHT22;2619;47.868;11.892;2024-03-02T15:24:46;12.40;99.90
5200;DHT22;2619;47.868;11.892;2024-03-02T15:27:12;12.50;99.90
5200;DHT22;2619;47.868;11.892;2024-03-02T15:29:38;12.30;99.90
5200;DHT22;2619;47.868;11.892;2024-03-02T15:32:03;12.30;99.90
5200;DHT22;2619;47.868;11.892;2024-03-02T15:34:33;12.20;99.90
5200;DHT22;2619;47.868;11.892;2024-03-02T15:36:59;12.00;99.90
5200;DHT22;2619;47.868;11.892;2024-03-02T15:39:25;12.00;99.90
5200;DHT22;2619;47.868;11.892;2024-03-02T15:41:51;12.00;99.90
5200;DHT22;2619;47.868;11.892;2024-03-02T15:44:16;12.10;99.90
5200;DHT22;2619;47.868;11.892;2024-03-02T15:46:43;12.10;99.90
5200;DHT22;2619;47.868;11.892;2024-03-02T15:49:08;12.10;99.90
5200;DHT22;2619;47.868;11.892;2024-03-02T15:51:34;12.10;99.90
5200;DHT22;2619;47.868;11.892;2024-03-02T15:54:06;12.20;99.90
5200;DHT22;2619;47.868;11.892;2024-03-02T15:56:33;12.00;99.90
5200;DHT22;2619;47.868;11.892;2024-03-02T15:58:58;11.90;99.90
5200;DHT22;2619;47.868;11.892;2024-03-02T16:01:24;11.80;99.90